ADDS METAR Data INFO
IDs: Format: Raw Decoded Include TAF

Data at: 2257 UTC 22 Jun 2018

KDNV 222235Z AUTO 32005KT 10SM CLR 20/20 A2965 RMK AO2 T02000196
KDNV 222215Z AUTO 30006KT 10SM -RA SCT033 SCT046 SCT060 20/19 A2965 RMK AO2 T01970194
KDNV 222155Z AUTO 33007KT 10SM -RA SCT060 BKN070 OVC110 20/20 A2965 RMK AO2 T01970195
KDNV 222135Z AUTO 36004KT 10SM -RA SCT070 BKN090 OVC110 20/20 A2966 RMK AO2 T01960195
KDNV 222115Z AUTO 33007KT 10SM RA SCT070 OVC100 20/19 A2965 RMK AO2 T01960190
KDNV 222055Z AUTO 00000KT 10SM RA SCT025 BKN060 OVC090 20/18 A2965 RMK AO2 T02000184
KDNV 222035Z AUTO 32003KT 10SM -RA SCT021 BKN027 OVC060 21/19 A2967 RMK AO2 T02050185
KDNV 222015Z AUTO 00000KT 10SM SCT016 BKN025 OVC050 21/18 A2966 RMK AO2 T02070182
KDNV 221955Z AUTO 32004KT 10SM SCT016 BKN020 OVC037 21/19 A2967 RMK AO2 T02080186
KDNV 221935Z AUTO 26008KT 10SM RA SCT019 SCT025 OVC037 22/20 A2966 RMK AO2 T02150204
KDNV 221915Z AUTO 20011KT 10SM BKN021 BKN035 23/20 A2966 RMK AO2 T02270198
KDNV 221855Z AUTO 20008KT 10SM SCT019 SCT024 SCT070 24/21 A2965 RMK AO2 T02400209
KDNV 221835Z AUTO 21005KT 10SM SCT015 SCT024 BKN110 23/20 A2965 RMK AO2 T02260201
KDNV 221815Z AUTO 21007KT 10SM SCT018 SCT041 SCT110 23/20 A2966 RMK AO2 T02270201
KDNV 221755Z AUTO 17008KT 10SM SCT018 SCT022 BKN055 24/20 A2966 RMK AO2 T02350202 10241 20192
KDNV 221735Z AUTO 16006KT 10SM SCT024 SCT039 BKN050 24/20 A2966 RMK AO2 T02380198
KDNV 221715Z AUTO 18003KT 10SM SCT021 SCT034 OVC080 24/20 A2966 RMK AO2 T02400198
KDNV 221655Z AUTO 22005KT 10SM SCT019 BKN034 OVC045 23/20 A2966 RMK AO2 T02330201
KDNV 221635Z AUTO 13004KT 10SM SCT019 BKN027 BKN033 23/20 A2967 RMK AO2 T02340200
KDNV 221615Z AUTO 12003KT 10SM SCT017 SCT024 BKN042 23/20 A2967 RMK AO2 T02260201
KDNV 221555Z AUTO 17003KT 10SM SCT015 BKN023 BKN041 22/20 A2968 RMK AO2 T02210201
KDNV 221535Z AUTO 19005KT 10SM SCT013 SCT027 SCT034 22/20 A2968 RMK AO2 T02210200
KDNV 221515Z AUTO 16006KT 10SM SCT014 BKN027 BKN036 22/20 A2968 RMK AO2 T02200197
KDNV 221455Z AUTO 18007KT 10SM BKN014 BKN022 OVC049 22/20 A2968 RMK AO2 T02230199
KDNV 221435Z AUTO 18005KT 10SM OVC012 22/20 A2968 RMK AO2 T02170198
KDNV 221415Z AUTO 17005KT 10SM OVC010 22/20 A2968 RMK AO2 T02160201
KDNV 221355Z AUTO 00000KT 10SM BKN010 BKN014 OVC110 21/20 A2968 RMK AO2 T02140200
KDNV 221335Z AUTO 19004KT 10SM BKN010 BKN070 BKN110 21/20 A2968 RMK AO2 T02060198
KDNV 221315Z AUTO 17005KT 10SM BKN008 BKN070 21/20 A2968 RMK AO2 T02080200
KDNV 221255Z AUTO 15003KT 10SM OVC008 20/20 A2968 RMK AO2 T02010198
KDNV 221235Z AUTO 13005KT 10SM BKN006 BKN012 OVC070 20/20 A2968 RMK AO2 T01980198
KDNV 221215Z AUTO 14004KT 10SM BKN004 OVC009 20/20 A2968 RMK AO2 T01950195
KDNV 221155Z AUTO 14004KT 5SM BR OVC004 19/19 A2968 RMK AO2 70021 T01920192 10200 20187
KDNV 221135Z AUTO 13003KT 7SM OVC004 19/19 A2968 RMK AO2 T01900190
KDNV 221115Z AUTO 00000KT 7SM BKN004 19/19 A2968 RMK AO2 T01880188
KDNV 221055Z AUTO 10003KT 5SM BR OVC004 19/19 A2967 RMK AO2 T01880188
KDNV 221035Z AUTO 11004KT 7SM BKN004 BKN043 OVC049 19/19 A2967 RMK AO2 T01900190
KDNV 221015Z AUTO 14003KT 10SM SCT006 BKN011 OVC044 19/19 A2967 RMK AO2 T01920192
KDNV 220955Z AUTO 15004KT 10SM OVC008 19/19 A2968 RMK AO2 T01930193
KDNV 220935Z AUTO 15003KT 10SM BKN004 OVC008 20/20 A2967 RMK AO2 T01950195
KDNV 220915Z AUTO 13003KT 10SM BKN004 BKN008 OVC013 20/20 A2967 RMK AO2 T01950195
KDNV 220855Z AUTO 13004KT 10SM OVC015 20/20 A2967 RMK AO2 T01950195
KDNV 220835Z AUTO 00000KT 10SM OVC015 20/20 A2966 RMK AO2 T01950195
KDNV 220815Z AUTO 08003KT 10SM BKN013 BKN060 19/19 A2966 RMK AO2 T01930193
KDNV 220755Z AUTO 00000KT 10SM BKN011 OVC060 20/20 A2966 RMK AO2 T01950195
KDNV 220735Z AUTO 02004KT 10SM BKN011 20/20 A2965 RMK AO2 T01950195
KDNV 220715Z AUTO 00000KT 10SM SCT003 SCT011 SCT120 20/20 A2965 RMK AO2 T01950195
KDNV 220655Z AUTO 02003KT 10SM CLR 20/20 A2965 RMK AO2 T01960196
KDNV 220635Z AUTO 00000KT 10SM SCT110 20/20 A2966 RMK AO2 T01970197
KDNV 220615Z AUTO 00000KT 10SM SCT006 SCT046 SCT070 20/20 A2967 RMK AO2 T02000200
KDNV 220555Z AUTO 00000KT 10SM BKN006 BKN038 20/20 A2968 RMK AO2 T02000200 10209 20200 402580200
KDNV 220535Z AUTO 11005KT 10SM SCT032 20/20 A2967 RMK AO2 T02000200
KDNV 220515Z AUTO 09007KT 10SM SCT012 BKN030 20/20 A2967 RMK AO2 T02010201
KDNV 220455Z AUTO 09007KT 10SM SCT012 BKN018 BKN030 20/20 A2968 RMK AO2 T02030203
KDNV 220435Z AUTO 09005KT 10SM SCT016 BKN034 20/20 A2969 RMK AO2 T02010201
KDNV 220415Z AUTO 12003KT 10SM SCT016 BKN034 BKN120 20/20 A2970 RMK AO2 T02020202
KDNV 220355Z AUTO 08005KT 10SM BKN120 20/20 A2969 RMK AO2 T02020202
KDNV 220335Z AUTO 09004KT 10SM SCT018 SCT029 BKN120 20/20 A2970 RMK AO2 T02020202
KDNV 220315Z AUTO 01006KT 10SM SCT004 BKN014 OVC029 20/20 A2970 RMK AO2 T02020202
KDNV 220255Z AUTO 25004KT 7SM OVC004 21/21 A2971 RMK AO2 T02050205
KDNV 220235Z AUTO 00000KT 10SM BKN004 BKN013 OVC120 20/20 A2971 RMK AO2 T02030203
KDNV 220215Z AUTO 00000KT 10SM BKN004 BKN120 20/20 A2969 RMK AO2 T02020202
KDNV 220155Z AUTO 00000KT 10SM OVC004 20/20 A2968 RMK AO2 T02010201
KDNV 220135Z AUTO 00000KT 10SM OVC004 20/20 A2968 RMK AO2 T02020202
KDNV 220115Z AUTO 00000KT 10SM BKN004 20/20 A2968 RMK AO2 T02010201
KDNV 220055Z AUTO 05004KT 10SM SCT006 20/20 A2968 RMK AO2 T02020202
KDNV 220035Z AUTO 05005KT 10SM -RA SCT040 SCT060 SCT070 20/20 A2969 RMK AO2 T02040204
KDNV 220015Z AUTO 04005KT 10SM -RA SCT016 SCT050 BKN110 21/21 A2969 RMK AO2 T02050205
KDNV 212355Z AUTO 04009KT 10SM -RA SCT016 BKN060 OVC110 21/21 A2969 RMK AO2 P0005 60005 T02100208 10258 20210
KDNV 212335Z AUTO 05009KT 7SM RA SCT012 SCT055 OVC090 22/22 A2968 RMK AO2 P0005 T02160215
KDNV 212315Z AUTO 05005KT 7SM +RA SCT060 SCT090 BKN110 23/22 A2967 RMK AO2 T02250215
KDNV 212255Z AUTO 05006KT 10SM SCT055 SCT070 SCT120 23/21 A2967 RMK AO2 T02300212
KDNV 212235Z AUTO 01006KT 10SM SCT055 SCT070 24/22 A2967 RMK AO2 T02350216
KDNV 212215Z AUTO 02004KT 10SM SCT022 24/21 A2967 RMK AO2 T02380208
KDNV 212155Z AUTO 36007KT 10SM SCT022 24/21 A2967 RMK AO2 T02420211
KDNV 212135Z AUTO 36008KT 10SM SCT018 SCT023 26/22 A2967 RMK AO2 T02550221
KDNV 212115Z AUTO 03009KT 10SM SCT020 SCT027 25/22 A2966 RMK AO2 T02540219
KDNV 212055Z AUTO 01007KT 10SM SCT021 SCT026 26/22 A2967 RMK AO2 T02550217
KDNV 212035Z AUTO 03005KT 10SM SCT019 25/22 A2968 RMK AO2 T02500215
KDNV 212015Z AUTO 03005KT 10SM SCT028 SCT055 25/22 A2968 RMK AO2 T02520217
KDNV 211955Z AUTO 02003KT 10SM SCT019 BKN030 OVC049 25/21 A2970 RMK AO2 T02480212
KDNV 211935Z AUTO 36003KT 10SM SCT019 SCT025 OVC049 25/21 A2970 RMK AO2 T02470209
KDNV 211915Z AUTO 00000KT 10SM BKN021 BKN049 25/21 A2971 RMK AO2 T02490212
KDNV 211855Z AUTO 00000KT 10SM SCT015 SCT049 25/21 A2971 RMK AO2 T02450212
KDNV 211835Z AUTO 00000KT 10SM SCT120 24/21 A2971 RMK AO2 T02350207
KDNV 211815Z AUTO 00000KT 10SM SCT009 BKN120 23/21 A2971 RMK AO2 T02300210
KDNV 211755Z AUTO 00000KT 10SM SCT007 BKN030 OVC110 22/22 A2971 RMK AO2 60016 T02240217 10224 20207
KDNV 211735Z AUTO 00000KT 7SM -RA SCT007 BKN046 OVC055 22/21 A2971 RMK AO2 T02160214
KDNV 211715Z AUTO 22003KT 7SM +RA BKN007 BKN015 OVC050 21/21 A2973 RMK AO2 T02130213
KDNV 211655Z AUTO 27004KT 5SM RA BKN009 BKN015 OVC038 22/21 A2973 RMK AO2 T02150214
KDNV 211635Z AUTO 26003KT 7SM -RA BKN009 BKN012 OVC033 22/21 A2974 RMK AO2 T02160214
KDNV 211615Z AUTO 26004KT 10SM -RA BKN007 BKN012 OVC035 21/21 A2974 RMK AO2 T02130213
KDNV 211555Z AUTO 25004KT 7SM RA SCT006 SCT029 OVC035 21/21 A2974 RMK AO2 P0010 T02100210
KDNV 211535Z AUTO 26004KT 7SM RA SCT006 BKN028 OVC047 21/21 A2974 RMK AO2 P0007 T02070207
KDNV 211515Z AUTO 26006KT 10SM RA SCT006 BKN012 OVC028 21/21 A2974 RMK AO2 P0001 T02120212
KDNV 211455Z AUTO 25007KT 10SM RA BKN006 BKN012 OVC028 21/21 A2973 RMK AO2 60006 T02130213
KDNV 211435Z AUTO 24006KT 10SM -RA OVC006 21/21 A2973 RMK AO2 T02130213
KDNV 211355Z AUTO 00000KT 10SM RA BKN006 OVC018 21/21 A2975 RMK AO2 T02110211
KDNV 211335Z AUTO 26004KT 10SM -RA OVC006 21/21 A2975 RMK AO2 T02100210
KDNV 211315Z AUTO 25006KT 10SM -RA BKN006 BKN018 OVC023 21/21 A2976 RMK AO2 T02090209
KDNV 211255Z AUTO 25005KT 10SM RA BKN004 BKN008 OVC023 21/21 A2975 RMK AO2 P0005 T02070207
KDNV 211235Z AUTO 25003KT 10SM RA OVC006 21/21 A2975 RMK AO2 P0004 T02080208
KDNV 211215Z AUTO 25003KT 5SM +RA OVC006 21/21 A2975 RMK AO2 P0004 T02080208
KDNV 211155Z AUTO 24006KT 10SM RA OVC006 21/21 A2975 RMK AO2 70020 T02100210 10223 20210
KDNV 211135Z AUTO 24005KT 10SM RA BKN008 BKN038 OVC065 21/21 A2975 RMK AO2 T02100210
KDNV 211115Z AUTO 00000KT 10SM -RA SCT008 SCT038 OVC065 21/21 A2974 RMK AO2 T02130213